First I — 3ESJ5 — position and weather

sailwx.info

Track history (hours):
 
Tides and Currents Weather Stations Pressure Air Temp Water Temp Dewpoint Dewpoint Depression Visibility Wind Speed Wind Dir Waves Ship Positions

First I

Last reported at 2017-Apr-21 17:38 UTC. Time now 2017-Apr-23 17:48 UTC.
Position N 09°13' W 079°55'.

Length 190 m; draft 12 m.

Type: Cargo ship. MMSI: 370317000.

Date/timePositionNaut miles runAvg speedWind from/ knotsBaromVisibWave heightAir tempDewpointWater temp
2017-Apr-21 17:38N 09°13' W 079°55'1 4.9
2017-Apr-21 17:26N 09°14' W 079°55'1 2.6
2017-Apr-21 16:59N 09°15' W 079°55'0 0.0
2017-Apr-21 13:54N 09°15' W 079°55'0 0.0
2017-Apr-21 13:30N 09°15' W 079°55'0 0.0
2017-Apr-21 12:18N 09°15' W 079°55'0 0.1
2017-Apr-21 11:51N 09°15' W 079°55'0 0.1
2017-Apr-21 11:28N 09°15' W 079°55'1 1.9
2017-Apr-21 11:00N 09°16' W 079°55'1 1.3
2017-Apr-21 10:30N 09°16' W 079°55'0 0.4
2017-Apr-21 10:00N 09°16' W 079°55'0 0.3
2017-Apr-21 09:30N 09°17' W 079°55'0 0.3
2017-Apr-21 09:00N 09°17' W 079°55'1 1.4
2017-Apr-21 08:30N 09°17' W 079°55'3 6.7
2017-Apr-21 08:00N 09°21' W 079°55'3 5.6
2017-Apr-21 07:30N 09°24' W 079°55'3 5.3
2017-Apr-21 07:01N 09°25' W 079°57'0 0.3
2017-Apr-21 06:30N 09°25' W 079°57'0 0.0
2017-Apr-21 06:00N 09°25' W 079°57'0 0.0
2017-Apr-21 05:30N 09°25' W 079°57'0 0.0
2017-Apr-21 05:00N 09°25' W 079°57'0 0.0
2017-Apr-21 04:30N 09°25' W 079°57'0 0.0
2017-Apr-21 03:57N 09°25' W 079°57'0 0.0
2017-Apr-21 03:30N 09°25' W 079°57'0 0.0
2017-Apr-21 03:00N 09°25' W 079°57'0 0.0
2017-Apr-21 02:27N 09°25' W 079°57'0 0.0
2017-Apr-21 02:00N 09°25' W 079°57'0 0.0
2017-Apr-21 01:27N 09°25' W 079°57'0 0.0
2017-Apr-21 00:57N 09°25' W 079°57'0 0.0
2017-Apr-21 00:30N 09°25' W 079°57'0 0.0
2017-Apr-21 00:00N 09°25' W 079°57'0 0.0
2017-Apr-20 23:30N 09°25' W 079°57'0 0.0
2017-Apr-20 23:00N 09°25' W 079°57'0 0.0
2017-Apr-20 22:30N 09°25' W 079°57'0 0.0
2017-Apr-20 21:57N 09°25' W 079°57'0 0.0
2017-Apr-20 21:30N 09°25' W 079°57'0 0.0
2017-Apr-20 21:00N 09°25' W 079°57'0 0.0
2017-Apr-20 20:30N 09°25' W 079°57'0 0.0
2017-Apr-20 20:00N 09°25' W 079°57'0 0.0
2017-Apr-20 19:30N 09°25' W 079°57'0 0.2
2017-Apr-20 19:00N 09°25' W 079°57'2 4.8
2017-Apr-20 18:30N 09°26' W 079°55'5 9.4
2017-Apr-20 18:00N 09°30' W 079°54'  
2017-Apr-14 16:29N 29°44' W 095°09'0 0.0
2017-Apr-14 15:47N 29°44' W 095°09'0 0.0
2017-Apr-14 15:26N 29°44' W 095°09'0 0.0
2017-Apr-14 14:59N 29°44' W 095°09'0 0.0
2017-Apr-14 14:29N 29°44' W 095°09'0 0.0
2017-Apr-14 13:29N 29°44' W 095°09'0 0.0
2017-Apr-14 12:59N 29°44' W 095°09'0 0.0
2017-Apr-14 12:29N 29°44' W 095°09'0 0.0
2017-Apr-14 11:59N 29°44' W 095°09'0 0.0
2017-Apr-14 11:29N 29°44' W 095°09'0 0.0
2017-Apr-14 10:59N 29°44' W 095°09'0 0.0
2017-Apr-14 10:29N 29°44' W 095°09'0 0.0
2017-Apr-14 09:56N 29°44' W 095°09'0 0.0
2017-Apr-14 09:29N 29°44' W 095°09'0 0.0
2017-Apr-14 08:56N 29°44' W 095°09'0 0.0
2017-Apr-14 08:26N 29°44' W 095°09'0 0.0
2017-Apr-14 07:56N 29°44' W 095°09'0 0.0
2017-Apr-14 07:26N 29°44' W 095°09'0 0.0
2017-Apr-14 06:47N 29°44' W 095°09'0 0.0
2017-Apr-14 06:26N 29°44' W 095°09'0 0.0
2017-Apr-14 05:59N 29°44' W 095°09'0 0.0
2017-Apr-14 05:29N 29°44' W 095°09'0 0.0
2017-Apr-14 04:56N 29°44' W 095°09'0 0.0
2017-Apr-14 04:14N 29°44' W 095°09'0 0.0
2017-Apr-14 03:56N 29°44' W 095°09'0 0.0
2017-Apr-14 03:26N 29°44' W 095°09'0 0.0
2017-Apr-14 02:56N 29°44' W 095°09'0 0.0
2017-Apr-14 02:29N 29°44' W 095°09'0 0.0
2017-Apr-14 01:59N 29°44' W 095°09'0 0.0
2017-Apr-14 01:29N 29°44' W 095°09'0 0.0
2017-Apr-14 00:56N 29°44' W 095°09'0 0.0
2017-Apr-14 00:29N 29°44' W 095°09'0 0.0
2017-Apr-13 23:56N 29°44' W 095°09'0 0.0
2017-Apr-13 23:29N 29°44' W 095°09'0 0.0
2017-Apr-13 22:56N 29°44' W 095°09'0 0.0
2017-Apr-13 22:26N 29°44' W 095°09'0 0.0
2017-Apr-13 21:56N 29°44' W 095°09'0 0.0
2017-Apr-13 21:14N 29°44' W 095°09'0 0.0
2017-Apr-13 20:56N 29°44' W 095°09'0 0.0
2017-Apr-13 17:55N 29°44' W 095°09'0 0.0
2017-Apr-13 17:26N 29°44' W 095°09'0 0.0
2017-Apr-13 16:50N 29°44' W 095°09'0 0.0
2017-Apr-13 15:07N 29°44' W 095°09'0 0.0
2017-Apr-13 14:47N 29°44' W 095°09'0 0.0
2017-Apr-13 13:56N 29°44' W 095°09'0 0.0
2017-Apr-13 13:19N 29°44' W 095°09'0 0.0
2017-Apr-13 12:52N 29°44' W 095°09'0 0.0
2017-Apr-13 12:19N 29°44' W 095°09'0 0.0
2017-Apr-13 11:55N 29°44' W 095°09'0 0.0
2017-Apr-13 10:25N 29°44' W 095°09'0 0.0
2017-Apr-13 09:59N 29°44' W 095°09'1 1.8
2017-Apr-13 09:28N 29°44' W 095°08'3 6.9
2017-Apr-13 09:00N 29°46' W 095°04'4 7.4
2017-Apr-13 08:26N 29°43' W 095°01'  
Track history (hours):
 
Tides and Currents Weather Stations Pressure Air Temp Water Temp Dewpoint Dewpoint Depression Visibility Wind Speed Wind Dir Waves Ship Positions

First I

Last reported at 2017-Apr-21 17:38 UTC. Time now 2017-Apr-23 17:48 UTC.
Position N 09°13' W 079°55'.

Length 190 m; draft 12 m.

Type: Cargo ship. MMSI: 370317000.

Date/timePositionNaut miles runAvg speedWind from/ knotsBaromVisibWave heightAir tempDewpointWater temp
2017-Apr-21 17:38N 09°13' W 079°55'1 4.9
2017-Apr-21 17:26N 09°14' W 079°55'1 2.6
2017-Apr-21 16:59N 09°15' W 079°55'0 0.0
2017-Apr-21 13:54N 09°15' W 079°55'0 0.0
2017-Apr-21 13:30N 09°15' W 079°55'0 0.0
2017-Apr-21 12:18N 09°15' W 079°55'0 0.1
2017-Apr-21 11:51N 09°15' W 079°55'0 0.1
2017-Apr-21 11:28N 09°15' W 079°55'1 1.9
2017-Apr-21 11:00N 09°16' W 079°55'1 1.3
2017-Apr-21 10:30N 09°16' W 079°55'0 0.4
2017-Apr-21 10:00N 09°16' W 079°55'0 0.3
2017-Apr-21 09:30N 09°17' W 079°55'0 0.3
2017-Apr-21 09:00N 09°17' W 079°55'1 1.4
2017-Apr-21 08:30N 09°17' W 079°55'3 6.7
2017-Apr-21 08:00N 09°21' W 079°55'3 5.6
2017-Apr-21 07:30N 09°24' W 079°55'3 5.3
2017-Apr-21 07:01N 09°25' W 079°57'0 0.3
2017-Apr-21 06:30N 09°25' W 079°57'0 0.0
2017-Apr-21 06:00N 09°25' W 079°57'0 0.0
2017-Apr-21 05:30N 09°25' W 079°57'0 0.0
2017-Apr-21 05:00N 09°25' W 079°57'0 0.0
2017-Apr-21 04:30N 09°25' W 079°57'0 0.0
2017-Apr-21 03:57N 09°25' W 079°57'0 0.0
2017-Apr-21 03:30N 09°25' W 079°57'0 0.0
2017-Apr-21 03:00N 09°25' W 079°57'0 0.0
2017-Apr-21 02:27N 09°25' W 079°57'0 0.0
2017-Apr-21 02:00N 09°25' W 079°57'0 0.0
2017-Apr-21 01:27N 09°25' W 079°57'0 0.0
2017-Apr-21 00:57N 09°25' W 079°57'0 0.0
2017-Apr-21 00:30N 09°25' W 079°57'0 0.0
2017-Apr-21 00:00N 09°25' W 079°57'0 0.0
2017-Apr-20 23:30N 09°25' W 079°57'0 0.0
2017-Apr-20 23:00N 09°25' W 079°57'0 0.0
2017-Apr-20 22:30N 09°25' W 079°57'0 0.0
2017-Apr-20 21:57N 09°25' W 079°57'0 0.0
2017-Apr-20 21:30N 09°25' W 079°57'0 0.0
2017-Apr-20 21:00N 09°25' W 079°57'0 0.0
2017-Apr-20 20:30N 09°25' W 079°57'0 0.0
2017-Apr-20 20:00N 09°25' W 079°57'0 0.0
2017-Apr-20 19:30N 09°25' W 079°57'0 0.2
2017-Apr-20 19:00N 09°25' W 079°57'2 4.8
2017-Apr-20 18:30N 09°26' W 079°55'5 9.4
2017-Apr-20 18:00N 09°30' W 079°54'  
2017-Apr-14 16:29N 29°44' W 095°09'0 0.0
2017-Apr-14 15:47N 29°44' W 095°09'0 0.0
2017-Apr-14 15:26N 29°44' W 095°09'0 0.0
2017-Apr-14 14:59N 29°44' W 095°09'0 0.0
2017-Apr-14 14:29N 29°44' W 095°09'0 0.0
2017-Apr-14 13:29N 29°44' W 095°09'0 0.0
2017-Apr-14 12:59N 29°44' W 095°09'0 0.0
2017-Apr-14 12:29N 29°44' W 095°09'0 0.0
2017-Apr-14 11:59N 29°44' W 095°09'0 0.0
2017-Apr-14 11:29N 29°44' W 095°09'0 0.0
2017-Apr-14 10:59N 29°44' W 095°09'0 0.0
2017-Apr-14 10:29N 29°44' W 095°09'0 0.0
2017-Apr-14 09:56N 29°44' W 095°09'0 0.0
2017-Apr-14 09:29N 29°44' W 095°09'0 0.0
2017-Apr-14 08:56N 29°44' W 095°09'0 0.0
2017-Apr-14 08:26N 29°44' W 095°09'0 0.0
2017-Apr-14 07:56N 29°44' W 095°09'0 0.0
2017-Apr-14 07:26N 29°44' W 095°09'0 0.0
2017-Apr-14 06:47N 29°44' W 095°09'0 0.0
2017-Apr-14 06:26N 29°44' W 095°09'0 0.0
2017-Apr-14 05:59N 29°44' W 095°09'0 0.0
2017-Apr-14 05:29N 29°44' W 095°09'0 0.0
2017-Apr-14 04:56N 29°44' W 095°09'0 0.0
2017-Apr-14 04:14N 29°44' W 095°09'0 0.0
2017-Apr-14 03:56N 29°44' W 095°09'0 0.0
2017-Apr-14 03:26N 29°44' W 095°09'0 0.0
2017-Apr-14 02:56N 29°44' W 095°09'0 0.0
2017-Apr-14 02:29N 29°44' W 095°09'0 0.0
2017-Apr-14 01:59N 29°44' W 095°09'0 0.0
2017-Apr-14 01:29N 29°44' W 095°09'0 0.0
2017-Apr-14 00:56N 29°44' W 095°09'0 0.0
2017-Apr-14 00:29N 29°44' W 095°09'0 0.0
2017-Apr-13 23:56N 29°44' W 095°09'0 0.0
2017-Apr-13 23:29N 29°44' W 095°09'0 0.0
2017-Apr-13 22:56N 29°44' W 095°09'0 0.0
2017-Apr-13 22:26N 29°44' W 095°09'0 0.0
2017-Apr-13 21:56N 29°44' W 095°09'0 0.0
2017-Apr-13 21:14N 29°44' W 095°09'0 0.0
2017-Apr-13 20:56N 29°44' W 095°09'0 0.0
2017-Apr-13 17:55N 29°44' W 095°09'0 0.0
2017-Apr-13 17:26N 29°44' W 095°09'0 0.0
2017-Apr-13 16:50N 29°44' W 095°09'0 0.0
2017-Apr-13 15:07N 29°44' W 095°09'0 0.0
2017-Apr-13 14:47N 29°44' W 095°09'0 0.0
2017-Apr-13 13:56N 29°44' W 095°09'0 0.0
2017-Apr-13 13:19N 29°44' W 095°09'0 0.0
2017-Apr-13 12:52N 29°44' W 095°09'0 0.0
2017-Apr-13 12:19N 29°44' W 095°09'0 0.0
2017-Apr-13 11:55N 29°44' W 095°09'0 0.0
2017-Apr-13 10:25N 29°44' W 095°09'0 0.0
2017-Apr-13 09:59N 29°44' W 095°09'1 1.8
2017-Apr-13 09:28N 29°44' W 095°08'3 6.9
2017-Apr-13 09:00N 29°46' W 095°04'4 7.4
2017-Apr-13 08:26N 29°43' W 095°01'  

Dump ship's entire track history